sensor_id;sensor_type;location;lat;lon;timestamp;temperature;humidity
9509;DHT22;4792;50.088;8.122;2022-09-27T00:02:19;9.20;99.90
9509;DHT22;4792;50.088;8.122;2022-09-27T00:04:47;9.20;99.90
9509;DHT22;4792;50.088;8.122;2022-09-27T00:07:16;9.20;99.90
9509;DHT22;4792;50.088;8.122;2022-09-27T00:09:44;9.20;99.90
9509;DHT22;4792;50.088;8.122;2022-09-27T00:12:13;9.20;99.90
9509;DHT22;4792;50.088;8.122;2022-09-27T00:14:41;9.20;99.90
9509;DHT22;4792;50.088;8.122;2022-09-27T00:17:12;9.20;99.90
9509;DHT22;4792;50.088;8.122;2022-09-27T00:19:40;9.20;99.90
9509;DHT22;4792;50.088;8.122;2022-09-27T00:22:08;9.20;99.90
9509;DHT22;4792;50.088;8.122;2022-09-27T00:24:37;9.10;99.90
9509;DHT22;4792;50.088;8.122;2022-09-27T00:27:06;9.10;99.90
9509;DHT22;4792;50.088;8.122;2022-09-27T00:29:34;9.10;99.90
9509;DHT22;4792;50.088;8.122;2022-09-27T00:32:03;9.10;99.90
9509;DHT22;4792;50.088;8.122;2022-09-27T00:34:33;9.10;99.90
9509;DHT22;4792;50.088;8.122;2022-09-27T00:37:02;9.00;99.90
9509;DHT22;4792;50.088;8.122;2022-09-27T00:39:30;9.00;99.90
9509;DHT22;4792;50.088;8.122;2022-09-27T00:41:59;9.00;99.90
9509;DHT22;4792;50.088;8.122;2022-09-27T00:44:59;9.00;99.90
9509;DHT22;4792;50.088;8.122;2022-09-27T00:47:35;9.00;99.90
9509;DHT22;4792;50.088;8.122;2022-09-27T00:50:15;9.00;99.90
9509;DHT22;4792;50.088;8.122;2022-09-27T00:52:50;9.00;99.90
9509;DHT22;4792;50.088;8.122;2022-09-27T00:55:26;9.00;99.90
9509;DHT22;4792;50.088;8.122;2022-09-27T00:57:55;9.00;99.90
9509;DHT22;4792;50.088;8.122;2022-09-27T01:00:24;9.00;99.90
9509;DHT22;4792;50.088;8.122;2022-09-27T01:02:54;9.00;99.90
9509;DHT22;4792;50.088;8.122;2022-09-27T01:05:27;9.00;99.90
9509;DHT22;4792;50.088;8.122;2022-09-27T01:07:56;9.00;99.90
9509;DHT22;4792;50.088;8.122;2022-09-27T01:10:31;8.90;99.90
9509;DHT22;4792;50.088;8.122;2022-09-27T01:13:09;8.90;99.90
9509;DHT22;4792;50.088;8.122;2022-09-27T01:15:45;8.90;99.90
9509;DHT22;4792;50.088;8.122;2022-09-27T01:18:26;8.90;99.90
9509;DHT22;4792;50.088;8.122;2022-09-27T01:21:30;8.90;99.90
9509;DHT22;4792;50.088;8.122;2022-09-27T01:24:28;8.90;99.90
9509;DHT22;4792;50.088;8.122;2022-09-27T01:30:23;8.90;99.90
9509;DHT22;4792;50.088;8.122;2022-09-27T01:33:11;8.90;99.90
9509;DHT22;4792;50.088;8.122;2022-09-27T01:35:51;8.90;99.90
9509;DHT22;4792;50.088;8.122;2022-09-27T01:38:29;8.90;99.90
9509;DHT22;4792;50.088;8.122;2022-09-27T01:41:06;8.90;99.90
9509;DHT22;4792;50.088;8.122;2022-09-27T01:43:41;8.90;99.90
9509;DHT22;4792;50.088;8.122;2022-09-27T01:46:16;8.90;99.90
9509;DHT22;4792;50.088;8.122;2022-09-27T01:48:49;8.90;99.90
9509;DHT22;4792;50.088;8.122;2022-09-27T01:51:20;8.90;99.90
9509;DHT22;4792;50.088;8.122;2022-09-27T01:53:52;8.90;99.90
9509;DHT22;4792;50.088;8.122;2022-09-27T01:56:23;8.90;99.90
9509;DHT22;4792;50.088;8.122;2022-09-27T01:58:57;8.90;99.90
9509;DHT22;4792;50.088;8.122;2022-09-27T02:01:31;8.90;99.90
9509;DHT22;4792;50.088;8.122;2022-09-27T02:04:02;8.90;99.90
9509;DHT22;4792;50.088;8.122;2022-09-27T02:06:34;8.90;99.90
9509;DHT22;4792;50.088;8.122;2022-09-27T02:09:07;8.90;99.90
9509;DHT22;4792;50.088;8.122;2022-09-27T02:11:38;8.90;99.90
9509;DHT22;4792;50.088;8.122;2022-09-27T02:14:11;8.90;99.90
9509;DHT22;4792;50.088;8.122;2022-09-27T02:16:48;8.80;99.90
9509;DHT22;4792;50.088;8.122;2022-09-27T02:19:26;8.80;99.90
9509;DHT22;4792;50.088;8.122;2022-09-27T02:22:03;8.90;99.90
9509;DHT22;4792;50.088;8.122;2022-09-27T02:24:37;8.90;99.90
9509;DHT22;4792;50.088;8.122;2022-09-27T02:27:12;8.80;99.90
9509;DHT22;4792;50.088;8.122;2022-09-27T02:29:46;8.80;99.90
9509;DHT22;4792;50.088;8.122;2022-09-27T02:32:19;8.80;99.90
9509;DHT22;4792;50.088;8.122;2022-09-27T02:34:48;8.80;99.90
9509;DHT22;4792;50.088;8.122;2022-09-27T02:37:17;8.70;99.90
9509;DHT22;4792;50.088;8.122;2022-09-27T02:39:45;8.70;99.90
9509;DHT22;4792;50.088;8.122;2022-09-27T02:42:13;8.60;99.90
9509;DHT22;4792;50.088;8.122;2022-09-27T02:44:42;8.60;99.90
9509;DHT22;4792;50.088;8.122;2022-09-27T02:47:27;8.50;99.90
9509;DHT22;4792;50.088;8.122;2022-09-27T02:50:06;8.50;99.90
9509;DHT22;4792;50.088;8.122;2022-09-27T02:52:46;8.50;99.90
9509;DHT22;4792;50.088;8.122;2022-09-27T02:55:19;8.40;99.90
9509;DHT22;4792;50.088;8.122;2022-09-27T02:58:04;8.40;99.90
9509;DHT22;4792;50.088;8.122;2022-09-27T03:00:44;8.40;99.90
9509;DHT22;4792;50.088;8.122;2022-09-27T03:03:20;8.30;99.90
9509;DHT22;4792;50.088;8.122;2022-09-27T03:05:52;8.30;99.90
9509;DHT22;4792;50.088;8.122;2022-09-27T03:08:21;8.30;99.90
9509;DHT22;4792;50.088;8.122;2022-09-27T03:10:49;8.30;99.90
9509;DHT22;4792;50.088;8.122;2022-09-27T03:13:18;8.30;99.90
9509;DHT22;4792;50.088;8.122;2022-09-27T03:15:46;8.20;99.90
9509;DHT22;4792;50.088;8.122;2022-09-27T03:18:15;8.20;99.90
9509;DHT22;4792;50.088;8.122;2022-09-27T03:20:43;8.20;99.90
9509;DHT22;4792;50.088;8.122;2022-09-27T03:23:11;8.20;99.90
9509;DHT22;4792;50.088;8.122;2022-09-27T03:25:40;8.20;99.90
9509;DHT22;4792;50.088;8.122;2022-09-27T03:28:08;8.20;99.90
9509;DHT22;4792;50.088;8.122;2022-09-27T03:30:36;8.20;99.90
9509;DHT22;4792;50.088;8.122;2022-09-27T03:33:04;8.20;99.90
9509;DHT22;4792;50.088;8.122;2022-09-27T03:35:34;8.20;99.90
9509;DHT22;4792;50.088;8.122;2022-09-27T03:38:02;8.10;99.90
9509;DHT22;4792;50.088;8.122;2022-09-27T03:40:30;8.10;99.90
9509;DHT22;4792;50.088;8.122;2022-09-27T03:42:58;8.10;99.90
9509;DHT22;4792;50.088;8.122;2022-09-27T03:45:27;8.10;99.90
9509;DHT22;4792;50.088;8.122;2022-09-27T03:47:55;8.10;99.90
9509;DHT22;4792;50.088;8.122;2022-09-27T03:50:23;8.10;99.90
9509;DHT22;4792;50.088;8.122;2022-09-27T03:52:53;8.10;99.90
9509;DHT22;4792;50.088;8.122;2022-09-27T03:55:21;8.10;99.90
9509;DHT22;4792;50.088;8.122;2022-09-27T03:57:49;8.10;99.90
9509;DHT22;4792;50.088;8.122;2022-09-27T04:00:17;8.10;99.90
9509;DHT22;4792;50.088;8.122;2022-09-27T04:02:46;8.00;99.90
9509;DHT22;4792;50.088;8.122;2022-09-27T04:05:14;8.00;99.90
9509;DHT22;4792;50.088;8.122;2022-09-27T04:07:45;8.00;99.90
9509;DHT22;4792;50.088;8.122;2022-09-27T04:10:15;8.00;99.90
9509;DHT22;4792;50.088;8.122;2022-09-27T04:12:43;8.00;99.90
9509;DHT22;4792;50.088;8.122;2022-09-27T04:15:12;8.00;99.90
9509;DHT22;4792;50.088;8.122;2022-09-27T04:17:40;8.00;99.90
9509;DHT22;4792;50.088;8.122;2022-09-27T04:20:09;8.00;99.90
9509;DHT22;4792;50.088;8.122;2022-09-27T04:22:39;7.90;99.90
9509;DHT22;4792;50.088;8.122;2022-09-27T04:25:09;8.00;99.90
9509;DHT22;4792;50.088;8.122;2022-09-27T04:27:43;8.00;99.90
9509;DHT22;4792;50.088;8.122;2022-09-27T04:30:13;8.00;99.90
9509;DHT22;4792;50.088;8.122;2022-09-27T04:32:42;7.90;99.90
9509;DHT22;4792;50.088;8.122;2022-09-27T04:35:10;8.00;99.90
9509;DHT22;4792;50.088;8.122;2022-09-27T04:37:57;8.00;99.90
9509;DHT22;4792;50.088;8.122;2022-09-27T04:40:25;7.90;99.90
9509;DHT22;4792;50.088;8.122;2022-09-27T04:42:55;7.90;99.90
9509;DHT22;4792;50.088;8.122;2022-09-27T04:45:23;7.90;99.90
9509;DHT22;4792;50.088;8.122;2022-09-27T04:47:52;7.90;99.90
9509;DHT22;4792;50.088;8.122;2022-09-27T04:50:20;7.90;99.90
9509;DHT22;4792;50.088;8.122;2022-09-27T04:52:49;7.90;99.90
9509;DHT22;4792;50.088;8.122;2022-09-27T04:55:19;7.90;99.90
9509;DHT22;4792;50.088;8.122;2022-09-27T04:57:48;7.90;99.90
9509;DHT22;4792;50.088;8.122;2022-09-27T05:00:18;7.90;99.90
9509;DHT22;4792;50.088;8.122;2022-09-27T05:02:46;7.90;99.90
9509;DHT22;4792;50.088;8.122;2022-09-27T05:05:15;8.00;99.90
9509;DHT22;4792;50.088;8.122;2022-09-27T05:07:43;7.90;99.90
9509;DHT22;4792;50.088;8.122;2022-09-27T05:10:11;8.00;99.90
9509;DHT22;4792;50.088;8.122;2022-09-27T05:12:39;7.90;99.90
9509;DHT22;4792;50.088;8.122;2022-09-27T05:15:08;7.90;99.90
9509;DHT22;4792;50.088;8.122;2022-09-27T05:17:38;7.90;99.90
9509;DHT22;4792;50.088;8.122;2022-09-27T05:20:07;8.00;99.90
9509;DHT22;4792;50.088;8.122;2022-09-27T05:22:39;8.00;99.90
9509;DHT22;4792;50.088;8.122;2022-09-27T05:25:08;8.00;99.90
9509;DHT22;4792;50.088;8.122;2022-09-27T05:27:36;8.00;99.90
9509;DHT22;4792;50.088;8.122;2022-09-27T05:30:06;7.90;99.90
9509;DHT22;4792;50.088;8.122;2022-09-27T05:32:34;7.90;99.90
9509;DHT22;4792;50.088;8.122;2022-09-27T05:35:04;7.90;99.90
9509;DHT22;4792;50.088;8.122;2022-09-27T05:37:33;7.90;99.90
9509;DHT22;4792;50.088;8.122;2022-09-27T05:40:01;7.90;99.90
9509;DHT22;4792;50.088;8.122;2022-09-27T05:42:50;7.90;99.90
9509;DHT22;4792;50.088;8.122;2022-09-27T05:45:19;7.90;99.90
9509;DHT22;4792;50.088;8.122;2022-09-27T05:47:54;7.90;99.90
9509;DHT22;4792;50.088;8.122;2022-09-27T05:50:25;7.90;99.90
9509;DHT22;4792;50.088;8.122;2022-09-27T05:52:53;7.90;99.90
9509;DHT22;4792;50.088;8.122;2022-09-27T05:55:21;7.90;99.90
9509;DHT22;4792;50.088;8.122;2022-09-27T05:57:54;7.90;99.90
9509;DHT22;4792;50.088;8.122;2022-09-27T06:00:23;7.90;99.90
9509;DHT22;4792;50.088;8.122;2022-09-27T06:02:53;7.90;99.90
9509;DHT22;4792;50.088;8.122;2022-09-27T06:05:24;7.90;99.90
9509;DHT22;4792;50.088;8.122;2022-09-27T06:07:58;7.90;99.90
9509;DHT22;4792;50.088;8.122;2022-09-27T06:10:27;7.90;99.90
9509;DHT22;4792;50.088;8.122;2022-09-27T06:12:58;7.90;99.90
9509;DHT22;4792;50.088;8.122;2022-09-27T06:15:27;7.90;99.90
9509;DHT22;4792;50.088;8.122;2022-09-27T06:17:55;8.00;99.90
9509;DHT22;4792;50.088;8.122;2022-09-27T06:20:26;8.00;99.90
9509;DHT22;4792;50.088;8.122;2022-09-27T06:22:54;7.90;99.90
9509;DHT22;4792;50.088;8.122;2022-09-27T06:25:22;7.90;99.90
9509;DHT22;4792;50.088;8.122;2022-09-27T06:27:50;7.90;99.90
9509;DHT22;4792;50.088;8.122;2022-09-27T06:30:18;7.90;99.90
9509;DHT22;4792;50.088;8.122;2022-09-27T06:32:46;7.90;99.90
9509;DHT22;4792;50.088;8.122;2022-09-27T06:35:14;7.80;99.90
9509;DHT22;4792;50.088;8.122;2022-09-27T06:37:44;7.80;99.90
9509;DHT22;4792;50.088;8.122;2022-09-27T06:40:13;7.80;99.90
9509;DHT22;4792;50.088;8.122;2022-09-27T06:42:41;7.90;99.90
9509;DHT22;4792;50.088;8.122;2022-09-27T06:45:09;7.90;99.90
9509;DHT22;4792;50.088;8.122;2022-09-27T06:47:37;7.90;99.90
9509;DHT22;4792;50.088;8.122;2022-09-27T06:50:06;7.90;99.90
9509;DHT22;4792;50.088;8.122;2022-09-27T06:52:35;7.90;99.90
9509;DHT22;4792;50.088;8.122;2022-09-27T06:55:07;7.90;99.90
9509;DHT22;4792;50.088;8.122;2022-09-27T06:57:37;7.90;99.90
9509;DHT22;4792;50.088;8.122;2022-09-27T07:00:23;8.00;99.90
9509;DHT22;4792;50.088;8.122;2022-09-27T07:02:53;8.00;99.90
9509;DHT22;4792;50.088;8.122;2022-09-27T07:05:24;8.00;99.90
9509;DHT22;4792;50.088;8.122;2022-09-27T07:07:52;8.00;99.90
9509;DHT22;4792;50.088;8.122;2022-09-27T07:10:27;8.00;99.90
9509;DHT22;4792;50.088;8.122;2022-09-27T07:12:56;8.00;99.90
9509;DHT22;4792;50.088;8.122;2022-09-27T07:15:25;8.00;99.90
9509;DHT22;4792;50.088;8.122;2022-09-27T07:17:55;8.00;99.90
9509;DHT22;4792;50.088;8.122;2022-09-27T07:20:24;8.00;99.90
9509;DHT22;4792;50.088;8.122;2022-09-27T07:22:53;8.00;99.90
9509;DHT22;4792;50.088;8.122;2022-09-27T07:25:21;8.00;99.90
9509;DHT22;4792;50.088;8.122;2022-09-27T07:27:51;8.10;99.90
9509;DHT22;4792;50.088;8.122;2022-09-27T07:30:20;8.10;99.90
9509;DHT22;4792;50.088;8.122;2022-09-27T07:32:49;8.10;99.90
9509;DHT22;4792;50.088;8.122;2022-09-27T07:35:18;8.10;99.90
9509;DHT22;4792;50.088;8.122;2022-09-27T07:37:46;8.10;99.90
9509;DHT22;4792;50.088;8.122;2022-09-27T07:40:14;8.20;99.90
9509;DHT22;4792;50.088;8.122;2022-09-27T07:42:42;8.20;99.90
9509;DHT22;4792;50.088;8.122;2022-09-27T07:45:12;8.20;99.90
9509;DHT22;4792;50.088;8.122;2022-09-27T07:47:40;8.20;99.90
9509;DHT22;4792;50.088;8.122;2022-09-27T07:50:09;8.20;99.90
9509;DHT22;4792;50.088;8.122;2022-09-27T07:52:41;8.30;99.90
9509;DHT22;4792;50.088;8.122;2022-09-27T07:55:11;8.30;99.90
9509;DHT22;4792;50.088;8.122;2022-09-27T07:57:40;8.40;99.90
9509;DHT22;4792;50.088;8.122;2022-09-27T08:00:10;8.70;99.90
9509;DHT22;4792;50.088;8.122;2022-09-27T08:02:40;8.80;99.90
9509;DHT22;4792;50.088;8.122;2022-09-27T08:05:10;9.00;99.90
9509;DHT22;4792;50.088;8.122;2022-09-27T08:07:39;9.10;99.90
9509;DHT22;4792;50.088;8.122;2022-09-27T08:10:07;9.10;99.90
9509;DHT22;4792;50.088;8.122;2022-09-27T08:12:36;9.30;99.90
9509;DHT22;4792;50.088;8.122;2022-09-27T08:15:05;9.60;99.90
9509;DHT22;4792;50.088;8.122;2022-09-27T08:17:33;9.70;99.90
9509;DHT22;4792;50.088;8.122;2022-09-27T08:20:03;9.80;99.90
9509;DHT22;4792;50.088;8.122;2022-09-27T08:22:32;9.80;99.90
9509;DHT22;4792;50.088;8.122;2022-09-27T08:25:00;9.90;99.90
9509;DHT22;4792;50.088;8.122;2022-09-27T08:27:28;10.00;99.90
9509;DHT22;4792;50.088;8.122;2022-09-27T08:29:56;10.30;99.90
9509;DHT22;4792;50.088;8.122;2022-09-27T08:32:25;10.50;99.90
9509;DHT22;4792;50.088;8.122;2022-09-27T08:34:54;10.50;99.90
9509;DHT22;4792;50.088;8.122;2022-09-27T08:37:23;10.80;99.90
9509;DHT22;4792;50.088;8.122;2022-09-27T08:39:52;11.20;99.90
9509;DHT22;4792;50.088;8.122;2022-09-27T08:42:27;11.30;99.90
9509;DHT22;4792;50.088;8.122;2022-09-27T08:45:02;11.50;99.90
9509;DHT22;4792;50.088;8.122;2022-09-27T08:47:34;11.40;99.90
9509;DHT22;4792;50.088;8.122;2022-09-27T08:50:17;11.30;99.90
9509;DHT22;4792;50.088;8.122;2022-09-27T08:52:51;11.20;99.90
9509;DHT22;4792;50.088;8.122;2022-09-27T08:55:25;11.10;99.90
9509;DHT22;4792;50.088;8.122;2022-09-27T08:57:56;10.90;99.90
9509;DHT22;4792;50.088;8.122;2022-09-27T09:00:27;10.60;99.90
9509;DHT22;4792;50.088;8.122;2022-09-27T09:02:56;10.30;99.90
9509;DHT22;4792;50.088;8.122;2022-09-27T09:05:28;10.20;99.90
9509;DHT22;4792;50.088;8.122;2022-09-27T09:08:20;10.10;99.90
9509;DHT22;4792;50.088;8.122;2022-09-27T09:10:56;10.00;99.90
9509;DHT22;4792;50.088;8.122;2022-09-27T09:13:55;10.10;99.90
9509;DHT22;4792;50.088;8.122;2022-09-27T09:16:38;10.10;99.90
9509;DHT22;4792;50.088;8.122;2022-09-27T09:19:20;10.00;99.90
9509;DHT22;4792;50.088;8.122;2022-09-27T09:21:56;10.10;99.90
9509;DHT22;4792;50.088;8.122;2022-09-27T09:24:40;10.20;99.90
9509;DHT22;4792;50.088;8.122;2022-09-27T09:27:16;10.30;99.90
9509;DHT22;4792;50.088;8.122;2022-09-27T09:30:16;10.30;99.90
9509;DHT22;4792;50.088;8.122;2022-09-27T09:33:04;10.30;99.90
9509;DHT22;4792;50.088;8.122;2022-09-27T09:35:40;10.40;99.90
9509;DHT22;4792;50.088;8.122;2022-09-27T09:38:15;10.50;99.90
9509;DHT22;4792;50.088;8.122;2022-09-27T09:40:51;10.60;99.90
9509;DHT22;4792;50.088;8.122;2022-09-27T09:43:23;10.60;99.90
9509;DHT22;4792;50.088;8.122;2022-09-27T09:45:56;10.70;99.90
9509;DHT22;4792;50.088;8.122;2022-09-27T09:48:31;10.60;99.90
9509;DHT22;4792;50.088;8.122;2022-09-27T09:51:05;10.60;99.90
9509;DHT22;4792;50.088;8.122;2022-09-27T09:53:40;10.50;99.90
9509;DHT22;4792;50.088;8.122;2022-09-27T09:56:14;10.30;99.90
9509;DHT22;4792;50.088;8.122;2022-09-27T09:58:47;10.20;99.90
9509;DHT22;4792;50.088;8.122;2022-09-27T10:01:19;10.20;99.90
9509;DHT22;4792;50.088;8.122;2022-09-27T10:03:48;10.40;99.90
9509;DHT22;4792;50.088;8.122;2022-09-27T10:06:17;10.60;99.90
9509;DHT22;4792;50.088;8.122;2022-09-27T10:08:45;10.70;99.90
9509;DHT22;4792;50.088;8.122;2022-09-27T10:11:20;11.00;99.90
9509;DHT22;4792;50.088;8.122;2022-09-27T10:13:49;11.10;99.90
9509;DHT22;4792;50.088;8.122;2022-09-27T10:16:19;11.00;99.90
9509;DHT22;4792;50.088;8.122;2022-09-27T10:18:49;10.70;99.90
9509;DHT22;4792;50.088;8.122;2022-09-27T10:21:21;10.70;99.90
9509;DHT22;4792;50.088;8.122;2022-09-27T10:24:11;10.60;99.90
9509;DHT22;4792;50.088;8.122;2022-09-27T10:26:47;10.40;99.90
9509;DHT22;4792;50.088;8.122;2022-09-27T10:29:24;10.40;99.90
9509;DHT22;4792;50.088;8.122;2022-09-27T10:32:03;10.40;99.90
9509;DHT22;4792;50.088;8.122;2022-09-27T10:34:34;10.60;99.90
9509;DHT22;4792;50.088;8.122;2022-09-27T10:37:06;10.70;99.90
9509;DHT22;4792;50.088;8.122;2022-09-27T10:39:34;10.70;99.90
9509;DHT22;4792;50.088;8.122;2022-09-27T10:42:19;10.90;99.90
9509;DHT22;4792;50.088;8.122;2022-09-27T10:44:47;11.10;99.90
9509;DHT22;4792;50.088;8.122;2022-09-27T10:47:19;11.30;99.90
9509;DHT22;4792;50.088;8.122;2022-09-27T10:49:49;11.70;99.90
9509;DHT22;4792;50.088;8.122;2022-09-27T10:52:20;12.00;99.90
9509;DHT22;4792;50.088;8.122;2022-09-27T10:54:54;12.00;99.90
9509;DHT22;4792;50.088;8.122;2022-09-27T10:57:25;11.70;99.90
9509;DHT22;4792;50.088;8.122;2022-09-27T10:59:55;11.70;99.90
9509;DHT22;4792;50.088;8.122;2022-09-27T11:02:28;11.50;99.90
9509;DHT22;4792;50.088;8.122;2022-09-27T11:05:08;11.20;99.90
9509;DHT22;4792;50.088;8.122;2022-09-27T11:07:48;11.00;99.90
9509;DHT22;4792;50.088;8.122;2022-09-27T11:10:23;11.00;99.90
9509;DHT22;4792;50.088;8.122;2022-09-27T11:13:13;11.10;99.90
9509;DHT22;4792;50.088;8.122;2022-09-27T11:15:58;11.10;99.90
9509;DHT22;4792;50.088;8.122;2022-09-27T11:18:38;11.00;99.90
9509;DHT22;4792;50.088;8.122;2022-09-27T11:21:18;11.00;99.90
9509;DHT22;4792;50.088;8.122;2022-09-27T11:24:00;11.10;99.90
9509;DHT22;4792;50.088;8.122;2022-09-27T11:26:42;11.10;99.90
9509;DHT22;4792;50.088;8.122;2022-09-27T11:29:23;11.10;99.90
9509;DHT22;4792;50.088;8.122;2022-09-27T11:32:07;11.00;99.90
9509;DHT22;4792;50.088;8.122;2022-09-27T11:37:35;11.00;99.90
9509;DHT22;4792;50.088;8.122;2022-09-27T11:40:17;11.10;99.90
9509;DHT22;4792;50.088;8.122;2022-09-27T11:43:04;11.20;99.90
9509;DHT22;4792;50.088;8.122;2022-09-27T11:45:43;11.40;99.90
9509;DHT22;4792;50.088;8.122;2022-09-27T11:48:44;11.60;99.90
9509;DHT22;4792;50.088;8.122;2022-09-27T11:51:28;11.50;99.90
9509;DHT22;4792;50.088;8.122;2022-09-27T11:54:05;11.60;99.90
9509;DHT22;4792;50.088;8.122;2022-09-27T11:56:45;11.60;99.90
9509;DHT22;4792;50.088;8.122;2022-09-27T11:59:40;11.70;99.90
9509;DHT22;4792;50.088;8.122;2022-09-27T12:05:17;11.90;99.90
9509;DHT22;4792;50.088;8.122;2022-09-27T12:07:54;12.00;99.90
9509;DHT22;4792;50.088;8.122;2022-09-27T12:10:29;12.10;99.90
9509;DHT22;4792;50.088;8.122;2022-09-27T12:12:58;12.20;99.90
9509;DHT22;4792;50.088;8.122;2022-09-27T12:15:28;12.20;99.90
9509;DHT22;4792;50.088;8.122;2022-09-27T12:18:06;12.00;99.90
9509;DHT22;4792;50.088;8.122;2022-09-27T12:20:36;11.70;99.90
9509;DHT22;4792;50.088;8.122;2022-09-27T12:23:10;11.60;99.90
9509;DHT22;4792;50.088;8.122;2022-09-27T12:25:42;11.60;99.90
9509;DHT22;4792;50.088;8.122;2022-09-27T12:28:17;11.60;99.90
9509;DHT22;4792;50.088;8.122;2022-09-27T12:30:57;11.60;99.90
9509;DHT22;4792;50.088;8.122;2022-09-27T12:33:54;11.80;99.90
9509;DHT22;4792;50.088;8.122;2022-09-27T12:36:27;11.80;99.90
9509;DHT22;4792;50.088;8.122;2022-09-27T12:39:08;11.60;99.90
9509;DHT22;4792;50.088;8.122;2022-09-27T12:41:42;11.40;99.90
9509;DHT22;4792;50.088;8.122;2022-09-27T12:44:11;11.20;99.90
9509;DHT22;4792;50.088;8.122;2022-09-27T12:46:49;11.00;99.90
9509;DHT22;4792;50.088;8.122;2022-09-27T12:49:26;11.10;99.90
9509;DHT22;4792;50.088;8.122;2022-09-27T12:52:01;11.20;99.90
9509;DHT22;4792;50.088;8.122;2022-09-27T12:54:45;11.40;99.90
9509;DHT22;4792;50.088;8.122;2022-09-27T12:57:27;11.40;99.90
9509;DHT22;4792;50.088;8.122;2022-09-27T13:00:06;11.70;99.90
9509;DHT22;4792;50.088;8.122;2022-09-27T13:02:52;11.70;99.90
9509;DHT22;4792;50.088;8.122;2022-09-27T13:08:59;11.70;99.90
9509;DHT22;4792;50.088;8.122;2022-09-27T13:11:41;11.60;99.90
9509;DHT22;4792;50.088;8.122;2022-09-27T13:14:18;11.60;99.90
9509;DHT22;4792;50.088;8.122;2022-09-27T13:16:47;11.50;99.90
9509;DHT22;4792;50.088;8.122;2022-09-27T13:19:41;11.30;99.90
9509;DHT22;4792;50.088;8.122;2022-09-27T13:22:35;11.30;99.90
9509;DHT22;4792;50.088;8.122;2022-09-27T13:25:48;11.10;99.90
9509;DHT22;4792;50.088;8.122;2022-09-27T13:28:31;11.20;99.90
9509;DHT22;4792;50.088;8.122;2022-09-27T13:31:02;11.20;99.90
9509;DHT22;4792;50.088;8.122;2022-09-27T13:33:49;11.20;99.90
9509;DHT22;4792;50.088;8.122;2022-09-27T13:36:24;11.30;99.90
9509;DHT22;4792;50.088;8.122;2022-09-27T13:39:03;11.40;99.90
9509;DHT22;4792;50.088;8.122;2022-09-27T13:41:51;11.50;99.90
9509;DHT22;4792;50.088;8.122;2022-09-27T13:44:27;11.70;99.90
9509;DHT22;4792;50.088;8.122;2022-09-27T13:47:00;11.90;99.90
9509;DHT22;4792;50.088;8.122;2022-09-27T13:49:35;12.10;99.90
9509;DHT22;4792;50.088;8.122;2022-09-27T13:52:16;12.30;99.90
9509;DHT22;4792;50.088;8.122;2022-09-27T13:54:51;12.50;99.90
9509;DHT22;4792;50.088;8.122;2022-09-27T13:57:45;12.60;99.90
9509;DHT22;4792;50.088;8.122;2022-09-27T14:00:16;12.70;99.90
9509;DHT22;4792;50.088;8.122;2022-09-27T14:02:53;12.60;99.90
9509;DHT22;4792;50.088;8.122;2022-09-27T14:05:26;12.50;99.90
9509;DHT22;4792;50.088;8.122;2022-09-27T14:07:58;12.30;99.90
9509;DHT22;4792;50.088;8.122;2022-09-27T14:10:28;12.20;99.90
9509;DHT22;4792;50.088;8.122;2022-09-27T14:13:00;12.20;99.90
9509;DHT22;4792;50.088;8.122;2022-09-27T14:15:31;12.00;99.90
9509;DHT22;4792;50.088;8.122;2022-09-27T14:18:00;11.90;99.90
9509;DHT22;4792;50.088;8.122;2022-09-27T14:20:36;11.90;99.90
9509;DHT22;4792;50.088;8.122;2022-09-27T14:23:14;11.70;99.90
9509;DHT22;4792;50.088;8.122;2022-09-27T14:25:45;11.50;99.90
9509;DHT22;4792;50.088;8.122;2022-09-27T14:28:20;11.50;99.90
9509;DHT22;4792;50.088;8.122;2022-09-27T14:31:04;11.20;99.90
9509;DHT22;4792;50.088;8.122;2022-09-27T14:33:33;11.10;99.90
9509;DHT22;4792;50.088;8.122;2022-09-27T14:36:05;10.90;99.90
9509;DHT22;4792;50.088;8.122;2022-09-27T14:38:52;10.80;99.90
9509;DHT22;4792;50.088;8.122;2022-09-27T14:41:24;10.30;99.90
9509;DHT22;4792;50.088;8.122;2022-09-27T14:43:54;9.90;99.90
9509;DHT22;4792;50.088;8.122;2022-09-27T14:46:26;9.70;99.90
9509;DHT22;4792;50.088;8.122;2022-09-27T14:48:55;9.60;99.90
9509;DHT22;4792;50.088;8.122;2022-09-27T14:51:27;9.60;99.90
9509;DHT22;4792;50.088;8.122;2022-09-27T14:53:58;9.80;99.90
9509;DHT22;4792;50.088;8.122;2022-09-27T14:56:29;10.10;99.90
9509;DHT22;4792;50.088;8.122;2022-09-27T14:59:03;10.40;99.90
9509;DHT22;4792;50.088;8.122;2022-09-27T15:01:32;10.50;99.90
9509;DHT22;4792;50.088;8.122;2022-09-27T15:04:04;10.50;99.90
9509;DHT22;4792;50.088;8.122;2022-09-27T15:06:34;10.60;99.90
9509;DHT22;4792;50.088;8.122;2022-09-27T15:09:03;10.50;99.90
9509;DHT22;4792;50.088;8.122;2022-09-27T15:11:32;10.40;99.90
9509;DHT22;4792;50.088;8.122;2022-09-27T15:14:04;10.20;99.90
9509;DHT22;4792;50.088;8.122;2022-09-27T15:16:32;10.10;99.90
9509;DHT22;4792;50.088;8.122;2022-09-27T15:19:04;10.00;99.90
9509;DHT22;4792;50.088;8.122;2022-09-27T15:21:34;9.90;99.90
9509;DHT22;4792;50.088;8.122;2022-09-27T15:24:03;9.80;99.90
9509;DHT22;4792;50.088;8.122;2022-09-27T15:26:37;9.70;99.90
9509;DHT22;4792;50.088;8.122;2022-09-27T15:29:17;9.60;99.90
9509;DHT22;4792;50.088;8.122;2022-09-27T15:31:57;9.60;99.90
9509;DHT22;4792;50.088;8.122;2022-09-27T15:34:26;9.40;99.90
9509;DHT22;4792;50.088;8.122;2022-09-27T15:36:56;9.40;99.90
9509;DHT22;4792;50.088;8.122;2022-09-27T15:39:29;9.50;99.90
9509;DHT22;4792;50.088;8.122;2022-09-27T15:42:06;9.50;99.90
9509;DHT22;4792;50.088;8.122;2022-09-27T15:44:45;9.40;99.90
9509;DHT22;4792;50.088;8.122;2022-09-27T15:47:45;9.30;99.90
9509;DHT22;4792;50.088;8.122;2022-09-27T15:50:33;9.30;99.90
9509;DHT22;4792;50.088;8.122;2022-09-27T15:53:01;9.20;99.90
9509;DHT22;4792;50.088;8.122;2022-09-27T15:55:33;9.20;99.90
9509;DHT22;4792;50.088;8.122;2022-09-27T15:58:04;9.10;99.90
9509;DHT22;4792;50.088;8.122;2022-09-27T16:00:35;9.10;99.90
9509;DHT22;4792;50.088;8.122;2022-09-27T16:03:03;9.10;99.90
9509;DHT22;4792;50.088;8.122;2022-09-27T16:05:31;9.10;99.90
9509;DHT22;4792;50.088;8.122;2022-09-27T16:08:00;9.10;99.90
9509;DHT22;4792;50.088;8.122;2022-09-27T16:10:31;9.10;99.90
9509;DHT22;4792;50.088;8.122;2022-09-27T16:13:03;9.10;99.90
9509;DHT22;4792;50.088;8.122;2022-09-27T16:15:31;9.10;99.90
9509;DHT22;4792;50.088;8.122;2022-09-27T16:18:00;9.10;99.90
9509;DHT22;4792;50.088;8.122;2022-09-27T16:20:29;9.10;99.90
9509;DHT22;4792;50.088;8.122;2022-09-27T16:22:58;9.10;99.90
9509;DHT22;4792;50.088;8.122;2022-09-27T16:25:26;9.10;99.90
9509;DHT22;4792;50.088;8.122;2022-09-27T16:27:56;9.20;99.90
9509;DHT22;4792;50.088;8.122;2022-09-27T16:30:25;9.20;99.90
9509;DHT22;4792;50.088;8.122;2022-09-27T16:32:53;9.40;99.90
9509;DHT22;4792;50.088;8.122;2022-09-27T16:35:23;9.60;99.90
9509;DHT22;4792;50.088;8.122;2022-09-27T16:37:51;9.60;99.90
9509;DHT22;4792;50.088;8.122;2022-09-27T16:40:20;9.80;99.90
9509;DHT22;4792;50.088;8.122;2022-09-27T16:42:48;9.90;99.90
9509;DHT22;4792;50.088;8.122;2022-09-27T16:45:17;9.90;99.90
9509;DHT22;4792;50.088;8.122;2022-09-27T16:47:46;9.70;99.90
9509;DHT22;4792;50.088;8.122;2022-09-27T16:50:14;9.60;99.90
9509;DHT22;4792;50.088;8.122;2022-09-27T16:53:02;9.40;99.90
9509;DHT22;4792;50.088;8.122;2022-09-27T16:55:31;9.10;99.90
9509;DHT22;4792;50.088;8.122;2022-09-27T16:57:59;9.00;99.90
9509;DHT22;4792;50.088;8.122;2022-09-27T17:00:29;8.90;99.90
9509;DHT22;4792;50.088;8.122;2022-09-27T17:02:59;8.80;99.90
9509;DHT22;4792;50.088;8.122;2022-09-27T17:05:27;8.70;99.90